createdAt,value
2019-05-02T00:02:49.379Z,3.48
2019-05-02T00:07:58.658Z,3.70
2019-05-02T00:13:07.148Z,3.22
2019-05-02T00:18:16.294Z,2.92
2019-05-02T00:23:28.055Z,3.33
2019-05-02T00:28:34.137Z,2.72
2019-05-02T00:33:43.247Z,3.08
2019-05-02T00:38:52.424Z,2.78
2019-05-02T00:44:01.509Z,2.84
2019-05-02T00:49:10.747Z,2.80
2019-05-02T00:54:24.185Z,2.83
2019-05-02T00:59:28.541Z,2.87
2019-05-02T01:04:37.636Z,2.90
2019-05-02T01:09:47.947Z,2.99
2019-05-02T01:14:55.573Z,2.90
2019-05-02T01:20:04.787Z,2.99
2019-05-02T01:25:15.808Z,3.05
2019-05-02T01:30:22.585Z,3.15
2019-05-02T01:35:32.684Z,2.78
2019-05-02T01:40:40.364Z,2.74
2019-05-02T01:45:49.553Z,3.32
2019-05-02T01:50:58.647Z,2.69
2019-05-02T01:56:08.036Z,2.88
2019-05-02T02:01:21.529Z,2.82
2019-05-02T02:06:25.921Z,2.70
2019-05-02T02:11:35.833Z,2.71
2019-05-02T02:16:44.452Z,2.58
2019-05-02T02:21:57.323Z,2.52
2019-05-02T02:27:02.223Z,2.82
2019-05-02T02:32:11.298Z,2.49
2019-05-02T02:37:20.484Z,2.43
2019-05-02T02:42:31.662Z,2.98
2019-05-02T02:47:40.805Z,2.85
2019-05-02T02:52:44.630Z,2.82
2019-05-02T02:57:48.526Z,2.84
2019-05-02T03:02:57.617Z,2.65
2019-05-02T03:08:07.249Z,2.39
2019-05-02T03:18:27.093Z,2.86
2019-05-02T03:23:32.664Z,2.54
2019-05-02T03:28:41.809Z,2.65
2019-05-02T03:33:56.658Z,2.66
2019-05-02T03:38:59.659Z,2.29
2019-05-02T03:44:11.892Z,2.23
2019-05-02T03:49:17.592Z,2.76
2019-05-02T03:54:26.672Z,2.37
2019-05-02T03:59:38.940Z,2.69
2019-05-02T04:04:44.621Z,2.55
2019-05-02T04:09:53.777Z,2.15
2019-05-02T04:15:02.866Z,1.84
2019-05-02T04:20:12.762Z,1.50
2019-05-02T04:25:20.726Z,1.16
2019-05-02T04:30:29.809Z,1.00
2019-05-02T04:35:39.417Z,1.16
2019-05-02T04:40:49.583Z,0.85
2019-05-02T04:45:59.987Z,0.62
2019-05-02T04:51:10.105Z,0.37
2019-05-02T04:56:14.552Z,0.33
2019-05-02T05:01:23.635Z,0.36
2019-05-02T05:06:32.893Z,0.33
2019-05-02T05:11:42.102Z,0.34
2019-05-02T05:16:55.487Z,0.34
2019-05-02T05:22:04.999Z,0.43
2019-05-02T05:27:13.114Z,0.45
2019-05-02T05:32:17.917Z,0.49
2019-05-02T05:37:27.293Z,0.49
2019-05-02T05:42:34.682Z,0.53
2019-05-02T05:47:43.718Z,0.55
2019-05-02T05:52:52.861Z,0.57
2019-05-02T05:58:10.482Z,0.61
2019-05-02T06:03:13.885Z,0.66
2019-05-02T06:08:19.989Z,0.72
2019-05-02T06:13:28.139Z,0.69
2019-05-02T06:18:41.859Z,0.73
2019-05-02T06:23:46.540Z,0.74
2019-05-02T06:28:55.608Z,0.82
2019-05-02T06:34:07.093Z,0.85
2019-05-02T06:39:13.353Z,0.85
2019-05-02T06:44:24.181Z,0.74
2019-05-02T06:49:31.106Z,0.76
2019-05-02T06:54:40.268Z,0.85
2019-05-02T06:59:49.945Z,0.76
2019-05-02T07:04:58.027Z,0.66
2019-05-02T07:10:07.518Z,0.81
2019-05-02T07:15:15.799Z,0.87
2019-05-02T07:20:24.856Z,0.67
2019-05-02T07:25:34.016Z,0.99
2019-05-02T07:30:43.100Z,0.99
2019-05-02T07:35:55.260Z,1.02
2019-05-02T07:41:00.877Z,0.98
2019-05-02T07:46:10.024Z,0.77
2019-05-02T07:51:21.359Z,1.01
2019-05-02T07:56:27.923Z,0.86
2019-05-02T08:01:37.242Z,0.81
2019-05-02T08:06:46.506Z,0.79
2019-05-02T08:11:55.496Z,0.89
2019-05-02T08:17:05.698Z,0.98
2019-05-02T08:22:14.823Z,1.04
2019-05-02T08:27:23.108Z,1.05
2019-05-02T08:32:30.766Z,1.48
2019-05-02T08:37:41.110Z,1.05
2019-05-02T08:42:48.542Z,1.21
2019-05-02T08:48:00.201Z,1.10
2019-05-02T08:53:06.308Z,1.18
2019-05-02T08:58:15.971Z,1.56
2019-05-02T09:03:24.078Z,1.37
2019-05-02T09:08:33.394Z,1.54
2019-05-02T09:13:42.638Z,1.51
2019-05-02T09:18:53.955Z,1.60
2019-05-02T09:24:02.358Z,1.29
2019-05-02T09:29:09.145Z,1.42
2019-05-02T09:34:22.669Z,1.38
2019-05-02T09:39:27.331Z,1.65
2019-05-02T09:44:35.541Z,1.91
2019-05-02T09:49:48.989Z,2.14
2019-05-02T09:54:53.365Z,1.85
2019-05-02T10:00:02.506Z,2.39
2019-05-02T10:05:12.490Z,2.11
2019-05-02T10:10:21.899Z,2.40
2019-05-02T10:15:29.108Z,2.42
2019-05-02T10:20:38.345Z,2.05
2019-05-02T10:25:47.584Z,2.19
2019-05-02T10:30:56.842Z,2.05
2019-05-02T10:36:05.320Z,1.87
2019-05-02T10:41:14.365Z,2.05
2019-05-02T10:46:27.881Z,1.84
2019-05-02T10:51:32.230Z,1.67
2019-05-02T10:56:42.354Z,1.43
2019-05-02T11:01:51.980Z,1.40
2019-05-02T11:06:58.621Z,1.26
2019-05-02T11:12:07.664Z,0.73
2019-05-02T11:17:18.022Z,0.91
2019-05-02T11:22:25.360Z,0.90
2019-05-02T11:27:34.541Z,1.13
2019-05-02T11:32:43.581Z,0.76
2019-05-02T11:37:52.816Z,0.95
2019-05-02T11:43:04.973Z,0.97
2019-05-02T11:48:11.918Z,0.58
2019-05-02T11:53:28.865Z,0.70
2019-05-02T11:58:27.708Z,0.74
2019-05-02T12:03:37.045Z,0.63
2019-05-02T12:08:49.201Z,0.68
2019-05-02T12:13:56.919Z,0.71
2019-05-02T12:19:11.370Z,0.80
2019-05-02T12:24:12.683Z,0.76
2019-05-02T12:29:21.721Z,0.77
2019-05-02T12:34:28.531Z,0.81
2019-05-02T12:39:37.558Z,0.95
2019-05-02T12:44:46.660Z,0.87
2019-05-02T12:49:55.696Z,0.88
2019-05-02T12:55:04.795Z,0.89
2019-05-02T13:00:13.848Z,0.98
2019-05-02T13:05:23.472Z,0.79
2019-05-02T13:10:32.747Z,1.11
2019-05-02T13:15:42.386Z,0.95
2019-05-02T13:20:49.800Z,0.88
2019-05-02T13:25:58.905Z,0.94
2019-05-02T13:31:07.938Z,1.05
2019-05-02T13:36:17.075Z,0.80
2019-05-02T13:41:26.123Z,0.97
2019-05-02T13:46:35.301Z,0.78
2019-05-02T13:51:44.341Z,1.51
2019-05-02T13:56:53.538Z,0.90
2019-05-02T14:02:02.822Z,1.02
2019-05-02T14:07:13.178Z,1.05
2019-05-02T14:12:21.763Z,0.86
2019-05-02T14:17:28.469Z,0.98
2019-05-02T14:22:52.748Z,0.89
2019-05-02T14:27:42.036Z,0.98
2019-05-02T14:32:48.584Z,1.10
2019-05-02T14:37:57.760Z,1.07
2019-05-02T14:43:07.242Z,0.92
2019-05-02T14:48:21.018Z,1.06
2019-05-02T14:53:25.515Z,1.17
2019-05-02T14:58:37.795Z,1.27
2019-05-02T15:03:42.308Z,1.04
2019-05-02T15:08:50.159Z,1.02
2019-05-02T15:13:59.310Z,1.23
2019-05-02T15:19:08.379Z,1.56
2019-05-02T15:24:17.572Z,1.17
2019-05-02T15:29:27.411Z,1.19
2019-05-02T15:44:56.908Z,1.05
2019-05-02T15:50:03.017Z,1.06
2019-05-02T15:55:11.558Z,1.41
2019-05-02T16:00:22.970Z,1.27
2019-05-02T16:05:25.911Z,1.41
2019-05-02T16:10:38.565Z,1.63
2019-05-02T16:15:43.837Z,1.46
2019-05-02T16:21:04.213Z,1.32
2019-05-02T16:26:05.472Z,1.53
2019-05-02T16:31:10.177Z,1.42
2019-05-02T16:36:19.358Z,1.42
2019-05-02T16:41:28.402Z,1.91
2019-05-02T16:46:37.562Z,1.22
2019-05-02T16:51:46.622Z,1.54
2019-05-02T16:56:58.378Z,1.45
2019-05-02T17:02:08.285Z,1.66
2019-05-02T17:07:13.026Z,1.41
2019-05-02T17:12:22.092Z,1.65
2019-05-02T17:17:34.824Z,1.25
2019-05-02T17:22:41.450Z,1.49
2019-05-02T17:27:48.587Z,1.53
2019-05-02T17:32:57.638Z,1.42
2019-05-02T17:38:06.727Z,1.30
2019-05-02T17:43:15.791Z,1.21
2019-05-02T17:48:24.936Z,1.22
2019-05-02T17:53:41.324Z,1.08
2019-05-02T17:58:47.329Z,1.59
2019-05-02T18:03:52.267Z,1.08
2019-05-02T18:09:01.638Z,1.46
2019-05-02T18:19:21.861Z,1.26
2019-05-02T18:24:27.979Z,1.60
2019-05-02T18:29:42.545Z,1.37
2019-05-02T18:34:45.624Z,1.44
2019-05-02T18:39:56.308Z,1.62
2019-05-02T18:44:55.309Z,1.26
2019-05-02T18:50:06.141Z,1.27
2019-05-02T18:55:17.080Z,1.15
2019-05-02T19:00:22.895Z,1.09
2019-05-02T19:05:32.397Z,1.30
2019-05-02T19:10:42.480Z,1.39
2019-05-02T19:15:48.943Z,1.38
2019-05-02T19:20:57.733Z,1.27
2019-05-02T19:26:10.124Z,1.34
2019-05-02T19:31:07.061Z,1.23
2019-05-02T19:36:16.354Z,1.35
2019-05-02T19:41:23.229Z,1.16
2019-05-02T19:46:37.390Z,1.10
2019-05-02T19:51:40.927Z,1.37
2019-05-02T19:56:52.172Z,1.12
2019-05-02T20:02:02.412Z,1.49
2019-05-02T20:07:07.280Z,1.42
2019-05-02T20:12:16.400Z,1.42
2019-05-02T20:17:25.459Z,1.30
2019-05-02T20:22:36.299Z,1.24
2019-05-02T20:27:43.466Z,1.40
2019-05-02T20:32:52.707Z,1.24
2019-05-02T20:38:02.014Z,1.49
2019-05-02T20:43:12.128Z,1.31
2019-05-02T20:48:19.753Z,1.32
2019-05-02T20:53:31.402Z,1.38
2019-05-02T20:58:37.483Z,1.40
2019-05-02T21:03:46.554Z,1.49
2019-05-02T21:08:55.939Z,1.39
2019-05-02T21:14:04.972Z,1.40
2019-05-02T21:19:14.080Z,1.31
2019-05-02T21:24:23.165Z,1.54
2019-05-02T21:29:32.329Z,1.19
2019-05-02T21:34:42.499Z,1.45
2019-05-02T21:39:51.901Z,1.52
2019-05-02T21:44:58.694Z,1.42
2019-05-02T21:50:07.800Z,1.21
2019-05-02T21:55:21.738Z,1.22
2019-05-02T22:00:19.880Z,1.29
2019-05-02T22:05:28.948Z,1.11
2019-05-02T22:10:38.069Z,1.15
2019-05-02T22:15:47.095Z,1.13
2019-05-02T22:20:56.284Z,1.25
2019-05-02T22:26:05.321Z,1.24
2019-05-02T22:31:14.440Z,1.20
2019-05-02T22:36:23.472Z,1.11
2019-05-02T22:41:32.724Z,1.09
2019-05-02T22:46:43.193Z,1.25
2019-05-02T22:51:50.320Z,1.32
2019-05-02T22:56:59.430Z,1.16
2019-05-02T23:02:08.666Z,1.21
2019-05-02T23:07:17.788Z,1.05
2019-05-02T23:12:27.017Z,1.37
2019-05-02T23:17:36.132Z,1.30
2019-05-02T23:22:45.175Z,1.24
2019-05-02T23:27:54.297Z,1.31
2019-05-02T23:33:03.371Z,1.23
2019-05-02T23:38:12.648Z,1.19
2019-05-02T23:43:21.877Z,1.16
2019-05-02T23:48:32.533Z,1.27
2019-05-02T23:53:39.248Z,1.34
2019-05-02T23:58:48.358Z,1.06
